Wetterdaten: Woche 06.12.10 - 12.12.10 (KW49)
Datum Zeit Temp. A. Feuchte A. Luftdruck Regen Wind Richtung Taupunkt Windchill Windben
06.12.2010 00:00 -7,8 C 86 % 1009,4 hPa 0,0 l/m 0,0 km/h N -9,8 C -7,8 C 0,8 km/h
06.12.2010 01:00 -9,1 C 86 % 1009,1 hPa 0,0 l/m 0,0 km/h N -11,0 C -9,1 C 1,6 km/h
06.12.2010 02:00 -8,5 C 86 % 1008,8 hPa 0,0 l/m 0,0 km/h N -10,4 C -8,5 C 0,0 km/h
06.12.2010 03:00 -7,4 C 86 % 1008,3 hPa 0,0 l/m 0,0 km/h N -9,4 C -7,4 C 4,8 km/h
06.12.2010 04:00 -6,3 C 86 % 1008,0 hPa 0,0 l/m 0,0 km/h SW -8,2 C -6,3 C 4,0 km/h
06.12.2010 05:00 -5,6 C 86 % 1007,3 hPa 0,0 l/m 0,8 km/h N -7,6 C -5,6 C 4,8 km/h
06.12.2010 06:00 -5,5 C 86 % 1006,9 hPa 0,0 l/m 0,0 km/h N -7,5 C -5,5 C 2,4 km/h
06.12.2010 07:00 -5,3 C 86 % 1006,7 hPa 0,0 l/m 0,0 km/h N -7,3 C -5,3 C 0,8 km/h
06.12.2010 08:00 -5,1 C 86 % 1006,4 hPa 0,0 l/m 0,0 km/h N -7,1 C -5,1 C 1,6 km/h
06.12.2010 09:00 -4,3 C 86 % 1005,9 hPa 0,0 l/m 0,0 km/h N -6,3 C -4,3 C 2,4 km/h
06.12.2010 10:00 -3,8 C 86 % 1005,4 hPa 0,0 l/m 0,0 km/h N -5,7 C -3,8 C 4,8 km/h
06.12.2010 11:00 -3,1 C 86 % 1004,5 hPa 0,0 l/m 0,1 km/h N -5,1 C -3,1 C 1,6 km/h
06.12.2010 12:00 -2,7 C 86 % 1004,0 hPa 0,0 l/m 0,5 km/h N -4,7 C -2,7 C 3,6 km/h
06.12.2010 13:00 -1,8 C 86 % 1003,3 hPa 0,0 l/m 0,5 km/h N -3,8 C -1,8 C 4,4 km/h
06.12.2010 14:00 -1,1 C 86 % 1002,7 hPa 0,0 l/m 0,8 km/h W-NW -3,1 C -1,1 C 4,0 km/h
06.12.2010 15:00 -0,8 C 86 % 1002,3 hPa 0,0 l/m 1,0 km/h N -2,9 C -0,8 C 5,2 km/h
06.12.2010 16:00 -0,8 C 86 % 1002,4 hPa 0,0 l/m 0,6 km/h N -2,9 C -0,8 C 4,4 km/h
06.12.2010 17:00 -0,8 C 86 % 1002,4 hPa 0,0 l/m 0,3 km/h N -2,8 C -0,8 C 3,2 km/h
06.12.2010 18:00 -0,8 C 86 % 1002,3 hPa 0,0 l/m 0,1 km/h N -2,9 C -0,8 C 2,0 km/h
06.12.2010 19:00 -0,9 C 86 % 1002,0 hPa 0,0 l/m 0,4 km/h N -3,0 C -0,9 C 3,2 km/h
06.12.2010 20:00 -1,1 C 86 % 1001,9 hPa 0,0 l/m 0,2 km/h N -3,1 C -1,1 C 2,4 km/h
06.12.2010 21:00 -1,0 C 86 % 1001,7 hPa 0,0 l/m 1,5 km/h NW -3,1 C -1,0 C 5,6 km/h
06.12.2010 22:00 -1,2 C 86 % 1001,9 hPa 0,0 l/m 1,0 km/h NW -3,2 C -1,2 C 5,6 km/h
06.12.2010 23:00 -1,6 C 86 % 1002,0 hPa 0,0 l/m 0,8 km/h N -3,6 C -1,6 C 4,8 km/h
07.12.2010 00:00 -2,1 C 86 % 1002,1 hPa 0,0 l/m 0,6 km/h N -4,1 C -2,1 C 4,4 km/h
07.12.2010 01:00 -1,9 C 86 % 1002,0 hPa 0,0 l/m 0,4 km/h N -3,9 C -1,9 C 3,6 km/h
07.12.2010 02:00 -1,7 C 86 % 1002,0 hPa 0,0 l/m 0,2 km/h N -3,7 C -1,7 C 2,8 km/h
07.12.2010 03:00 -1,5 C 86 % 1001,7 hPa 0,0 l/m 0,0 km/h N -3,5 C -1,5 C 0,8 km/h
07.12.2010 04:00 -1,1 C 86 % 1001,8 hPa 0,0 l/m 0,0 km/h N -3,2 C -1,1 C 1,2 km/h
07.12.2010 05:00 -0,6 C 88 % 1002,2 hPa 0,0 l/m 0,0 km/h N -2,4 C -0,6 C 0,8 km/h
07.12.2010 06:00 0,1 C 86 % 1002,6 hPa 0,0 l/m 0,1 km/h N -2,0 C 0,1 C 1,6 km/h
07.12.2010 07:00 0,1 C 86 % 1002,8 hPa 0,0 l/m 0,2 km/h N -2,0 C 0,1 C 4,0 km/h
07.12.2010 08:00 0,2 C 86 % 1003,9 hPa 0,0 l/m 0,2 km/h N -1,8 C 0,2 C 3,2 km/h
07.12.2010 09:00 0,8 C 86 % 1004,3 hPa 0,0 l/m 0,0 km/h N -1,3 C 0,8 C 2,0 km/h
07.12.2010 10:00 1,2 C 86 % 1004,3 hPa 0,0 l/m 0,0 km/h N -0,9 C 1,2 C 1,2 km/h
07.12.2010 11:00 1,8 C 86 % 1004,4 hPa 0,3 l/m 0,0 km/h N -0,4 C 1,8 C 0,8 km/h
07.12.2010 12:00 2,1 C 86 % 1004,6 hPa 0,0 l/m 0,0 km/h N -0,1 C 2,1 C 0,0 km/h
07.12.2010 13:00 2,0 C 86 % 1004,5 hPa 0,0 l/m 0,0 km/h N -0,1 C 2,0 C 0,0 km/h
07.12.2010 14:00 3,1 C 85 % 1004,7 hPa 0,0 l/m 0,0 km/h N 0,9 C 3,1 C 0,0 km/h
07.12.2010 15:00 3,3 C 86 % 1005,0 hPa 0,0 l/m 0,0 km/h N 1,2 C 3,3 C 0,0 km/h
07.12.2010 16:00 2,1 C 86 % 1005,3 hPa 0,0 l/m 0,0 km/h N 0,0 C 2,1 C 0,0 km/h
07.12.2010 17:00 0,5 C 86 % 1005,4 hPa 0,0 l/m 0,0 km/h N -1,6 C 0,5 C 0,0 km/h
07.12.2010 18:00 -0,1 C 86 % 1005,5 hPa 0,0 l/m 0,0 km/h N -2,2 C -0,1 C 1,6 km/h
07.12.2010 19:00 -0,4 C 86 % 1005,5 hPa 0,0 l/m 0,0 km/h N -2,5 C -0,4 C 0,4 km/h
07.12.2010 20:00 -0,4 C 86 % 1005,1 hPa 0,0 l/m 0,0 km/h N -2,4 C -0,4 C 0,0 km/h
07.12.2010 21:00 -0,1 C 86 % 1005,1 hPa 0,0 l/m 0,0 km/h N -2,1 C -0,1 C 1,2 km/h
07.12.2010 22:00 0,2 C 86 % 1005,0 hPa 0,0 l/m 0,0 km/h N -1,9 C 0,2 C 0,0 km/h
07.12.2010 23:00 1,0 C 85 % 1004,9 hPa 0,0 l/m 0,0 km/h N -1,2 C 1,0 C 1,6 km/h
08.12.2010 00:00 1,5 C 85 % 1004,2 hPa 0,0 l/m 0,0 km/h N -0,8 C 1,5 C 0,8 km/h
08.12.2010 01:00 1,3 C 85 % 1004,0 hPa 0,0 l/m 0,0 km/h N -0,9 C 1,3 C 0,0 km/h
08.12.2010 02:00 1,2 C 85 % 1004,0 hPa 0,0 l/m 0,0 km/h N -1,0 C 1,2 C 0,0 km/h
08.12.2010 03:00 2,3 C 85 % 1004,6 hPa 0,0 l/m 1,6 km/h NW -0,0 C 2,3 C 6,4 km/h
08.12.2010 04:00 2,3 C 85 % 1005,2 hPa 0,0 l/m 1,6 km/h NW 0,1 C 2,3 C 8,1 km/h
08.12.2010 05:00 2,4 C 85 % 1005,5 hPa 0,0 l/m 0,0 km/h N 0,1 C 2,4 C 4,8 km/h
08.12.2010 06:00 2,0 C 85 % 1006,3 hPa 0,3 l/m 0,0 km/h N -0,3 C 2,0 C 3,2 km/h
08.12.2010 07:00 1,7 C 85 % 1007,1 hPa 0,3 l/m 0,0 km/h N -0,5 C 1,7 C 4,8 km/h
08.12.2010 08:00 1,7 C 85 % 1007,3 hPa 0,3 l/m 0,0 km/h N -0,6 C 1,7 C 0,8 km/h
08.12.2010 09:00 2,3 C 85 % 1007,7 hPa 0,5 l/m 0,0 km/h N -0,0 C 2,3 C 4,8 km/h
08.12.2010 10:00 2,3 C 85 % 1007,7 hPa 1,6 l/m 0,0 km/h N 0,1 C 2,3 C 2,4 km/h
08.12.2010 11:00 2,6 C 85 % 1006,8 hPa 2,1 l/m 0,0 km/h SO 0,3 C 2,6 C 2,4 km/h
08.12.2010 12:00 3,2 C 85 % 1006,0 hPa 3,1 l/m 1,6 km/h SO 0,9 C 3,2 C 4,8 km/h
08.12.2010 13:00 3,7 C 85 % 1005,3 hPa 2,1 l/m 0,8 km/h N 1,4 C 3,7 C 3,2 km/h
08.12.2010 14:00 3,2 C 86 % 1004,5 hPa 1,0 l/m 0,0 km/h N 1,0 C 3,2 C 3,2 km/h
08.12.2010 15:00 2,8 C 86 % 1004,1 hPa 0,8 l/m 0,0 km/h N 0,6 C 2,8 C 0,0 km/h
08.12.2010 16:00 2,3 C 86 % 1003,4 hPa 0,5 l/m 0,0 km/h N 0,2 C 2,3 C 0,0 km/h
08.12.2010 17:00 2,2 C 86 % 1003,0 hPa 0,3 l/m 0,0 km/h N 0,1 C 2,2 C 0,8 km/h
08.12.2010 18:00 1,8 C 86 % 1002,8 hPa 0,5 l/m 0,0 km/h N -0,3 C 1,8 C 0,0 km/h
08.12.2010 19:00 1,6 C 86 % 1002,5 hPa 0,0 l/m 0,0 km/h N -0,5 C 1,6 C 0,8 km/h
08.12.2010 20:00 2,3 C 86 % 1002,2 hPa 0,5 l/m 0,0 km/h N 0,1 C 2,3 C 4,0 km/h
08.12.2010 21:00 1,7 C 86 % 1002,2 hPa 0,5 l/m 0,0 km/h N -0,5 C 1,7 C 2,4 km/h
08.12.2010 22:00 1,3 C 86 % 1001,8 hPa 0,0 l/m 0,0 km/h N -0,9 C 1,3 C 3,2 km/h
08.12.2010 23:00 1,3 C 86 % 1001,3 hPa 0,0 l/m 0,0 km/h N -0,9 C 1,3 C 1,6 km/h
09.12.2010 00:00 0,9 C 85 % 1000,8 hPa 0,0 l/m 0,0 km/h N -1,3 C 0,9 C 0,8 km/h
09.12.2010 01:00 0,6 C 86 % 1001,3 hPa 0,0 l/m 0,0 km/h N -1,6 C 0,6 C 1,6 km/h
09.12.2010 02:00 0,5 C 86 % 1001,0 hPa 0,0 l/m 0,0 km/h N -1,7 C 0,5 C 1,6 km/h
09.12.2010 03:00 0,3 C 85 % 1001,0 hPa 0,0 l/m 0,0 km/h O -1,9 C 0,3 C 2,4 km/h
09.12.2010 04:00 0,7 C 85 % 1000,9 hPa 0,0 l/m 2,4 km/h O -1,5 C 0,7 C 16,9 km/h
09.12.2010 05:00 8,1 C 80 % 1000,7 hPa 7,5 l/m 17,7 km/h W 4,9 C 2,0 C 39,5 km/h
09.12.2010 06:00 5,7 C 79 % 1003,0 hPa 2,3 l/m 23,3 km/h W 2,3 C -3,5 C 55,5 km/h
09.12.2010 07:00 2,9 C 82 % 1008,0 hPa 0,5 l/m 19,3 km/h W 0,1 C -5,5 C 48,3 km/h
09.12.2010 08:00 1,7 C 83 % 1010,9 hPa 0,0 l/m 16,0 km/h W-SW -0,9 C -5,4 C 35,0 km/h
09.12.2010 09:00 1,3 C 76 % 1012,3 hPa 0,0 l/m 17,4 km/h N-NW -2,5 C -6,6 C 38,2 km/h
09.12.2010 10:00 1,3 C 71 % 1013,1 hPa 0,0 l/m 19,9 km/h NW -3,4 C -7,9 C 41,1 km/h
09.12.2010 11:00 1,4 C 70 % 1013,9 hPa 0,0 l/m 13,7 km/h NW -3,5 C -4,2 C 31,4 km/h
09.12.2010 12:00 1,3 C 75 % 1014,2 hPa 0,0 l/m 12,2 km/h W -2,6 C -3,5 C 31,0 km/h
09.12.2010 13:00 1,0 C 75 % 1014,8 hPa 0,0 l/m 12,0 km/h W-NW -3,0 C -3,8 C 27,8 km/h
09.12.2010 14:00 1,0 C 69 % 1014,3 hPa 0,0 l/m 13,6 km/h SW -4,0 C -4,9 C 31,8 km/h
09.12.2010 15:00 0,9 C 70 % 1014,9 hPa 0,0 l/m 16,3 km/h W-NW -4,0 C -6,6 C 43,8 km/h
09.12.2010 16:00 0,6 C 72 % 1015,4 hPa 0,0 l/m 11,9 km/h S-SW -3,8 C -4,2 C 29,8 km/h
09.12.2010 17:00 0,8 C 73 % 1016,0 hPa 0,0 l/m 12,8 km/h W-SW -3,5 C -4,5 C 33,0 km/h
09.12.2010 18:00 1,2 C 72 % 1016,6 hPa 0,0 l/m 10,9 km/h W -3,4 C -2,7 C 29,0 km/h
09.12.2010 19:00 1,3 C 72 % 1017,1 hPa 0,0 l/m 11,9 km/h W -3,3 C -3,4 C 33,8 km/h
09.12.2010 20:00 1,2 C 72 % 1017,2 hPa 0,0 l/m 10,5 km/h W -3,3 C -2,5 C 27,0 km/h
09.12.2010 21:00 1,1 C 74 % 1016,8 hPa 0,0 l/m 10,8 km/h W -3,0 C -2,8 C 29,8 km/h
09.12.2010 22:00 1,2 C 72 % 1016,4 hPa 0,0 l/m 9,6 km/h W-SW -3,3 C -1,8 C 26,6 km/h
09.12.2010 23:00 1,3 C 71 % 1017,0 hPa 0,0 l/m 11,6 km/h W-SW -3,4 C -3,3 C 27,4 km/h
10.12.2010 00:00 0,7 C 76 % 1017,9 hPa 0,0 l/m 9,8 km/h NW -3,1 C -2,5 C 24,1 km/h
10.12.2010 01:00 -0,5 C 84 % 1018,4 hPa 0,0 l/m 7,5 km/h W-NW -2,9 C -1,9 C 22,5 km/h
10.12.2010 02:00 -0,0 C 77 % 1018,1 hPa 0,0 l/m 9,5 km/h W-NW -3,6 C -3,1 C 24,5 km/h
10.12.2010 03:00 0,1 C 77 % 1018,3 hPa 0,0 l/m 7,8 km/h NW -3,6 C -1,3 C 20,5 km/h
10.12.2010 04:00 -0,3 C 77 % 1017,7 hPa 0,0 l/m 6,0 km/h NW -3,8 C -0,8 C 17,7 km/h
10.12.2010 05:00 -0,6 C 76 % 1017,3 hPa 0,0 l/m 4,9 km/h NW -4,2 C -0,6 C 13,3 km/h
10.12.2010 06:00 -0,1 C 73 % 1017,4 hPa 0,0 l/m 6,4 km/h NW -4,4 C -0,3 C 18,9 km/h
10.12.2010 07:00 -0,2 C 75 % 1018,1 hPa 0,0 l/m 6,4 km/h NW -4,0 C -0,4 C 17,7 km/h
10.12.2010 08:00 0,0 C 74 % 1019,4 hPa 0,0 l/m 9,1 km/h NW -4,1 C -2,6 C 22,1 km/h
10.12.2010 09:00 0,4 C 69 % 1020,3 hPa 0,0 l/m 13,6 km/h N-NW -4,6 C -5,4 C 33,0 km/h
10.12.2010 10:00 -0,5 C 73 % 1021,2 hPa 0,0 l/m 13,9 km/h NW -4,8 C -6,8 C 34,2 km/h
10.12.2010 11:00 0,2 C 64 % 1021,6 hPa 0,0 l/m 17,2 km/h N-NW -5,9 C -7,9 C 34,6 km/h
10.12.2010 12:00 -0,2 C 64 % 1022,6 hPa 0,0 l/m 17,9 km/h NW -6,1 C -8,8 C 38,2 km/h
10.12.2010 13:00 -0,2 C 62 % 1023,4 hPa 0,0 l/m 13,5 km/h NW -6,5 C -6,2 C 31,4 km/h
10.12.2010 14:00 0,1 C 58 % 1023,8 hPa 0,0 l/m 12,1 km/h N-NW -7,2 C -4,9 C 28,2 km/h
10.12.2010 15:00 -0,1 C 58 % 1024,2 hPa 0,0 l/m 8,5 km/h N-NW -7,5 C -2,3 C 22,9 km/h
10.12.2010 16:00 -0,3 C 57 % 1025,0 hPa 0,0 l/m 13,8 km/h NW -7,8 C -6,5 C 33,4 km/h
10.12.2010 17:00 -0,5 C 59 % 1025,4 hPa 0,0 l/m 10,4 km/h NW -7,6 C -4,2 C 23,7 km/h
10.12.2010 18:00 -0,4 C 59 % 1025,7 hPa 0,0 l/m 13,1 km/h W -7,4 C -6,3 C 31,8 km/h
10.12.2010 19:00 -0,3 C 68 % 1025,7 hPa 0,0 l/m 10,9 km/h NW -5,5 C -4,5 C 26,1 km/h
10.12.2010 20:00 -0,3 C 68 % 1025,5 hPa 0,0 l/m 10,9 km/h NW -5,5 C -4,5 C 28,6 km/h
10.12.2010 21:00 -0,3 C 67 % 1025,3 hPa 0,0 l/m 12,6 km/h W -5,7 C -5,8 C 30,2 km/h
10.12.2010 22:00 -0,5 C 68 % 1025,1 hPa 0,0 l/m 10,5 km/h W -5,8 C -4,4 C 27,7 km/h
10.12.2010 23:00 -0,8 C 68 % 1025,1 hPa 0,0 l/m 7,1 km/h W -5,9 C -1,5 C 20,1 km/h
11.12.2010 00:00 -0,8 C 69 % 1024,8 hPa 0,0 l/m 6,6 km/h W-NW -5,7 C -1,5 C 18,9 km/h
11.12.2010 01:00 -0,9 C 71 % 1024,1 hPa 0,0 l/m 4,2 km/h W -5,6 C -0,9 C 15,3 km/h
11.12.2010 02:00 -0,6 C 72 % 1023,4 hPa 0,0 l/m 4,8 km/h W-NW -5,1 C -0,6 C 15,3 km/h
11.12.2010 03:00 0,2 C 75 % 1022,0 hPa 0,0 l/m 4,9 km/h W -3,8 C 0,2 C 19,7 km/h
11.12.2010 04:00 0,9 C 76 % 1020,8 hPa 0,0 l/m 2,3 km/h W-NW -2,8 C 0,9 C 11,7 km/h
11.12.2010 05:00 1,3 C 75 % 1020,0 hPa 0,0 l/m 2,3 km/h S-SO -2,7 C 1,3 C 12,5 km/h
11.12.2010 06:00 -0,6 C 80 % 1018,9 hPa 0,0 l/m 2,3 km/h S -3,6 C -0,6 C 10,1 km/h
11.12.2010 07:00 -1,4 C 84 % 1017,7 hPa 0,0 l/m 2,8 km/h SO -3,8 C -1,4 C 10,5 km/h
11.12.2010 08:00 -1,3 C 85 % 1016,3 hPa 0,0 l/m 1,6 km/h SO -3,6 C -1,3 C 8,1 km/h
11.12.2010 09:00 -0,0 C 85 % 1015,2 hPa 0,0 l/m 2,4 km/h SW -2,2 C -0,0 C 11,6 km/h
11.12.2010 10:00 3,1 C 84 % 1013,9 hPa 1,6 l/m 10,6 km/h S-SW 0,6 C -0,3 C 31,0 km/h
11.12.2010 11:00 3,5 C 81 % 1012,8 hPa 3,6 l/m 14,3 km/h W 0,5 C -2,3 C 36,2 km/h
11.12.2010 12:00 3,5 C 81 % 1012,2 hPa 2,1 l/m 16,1 km/h W 0,6 C -3,3 C 37,8 km/h
11.12.2010 13:00 4,3 C 77 % 1011,5 hPa 0,3 l/m 16,9 km/h W 0,6 C -2,7 C 47,5 km/h
11.12.2010 14:00 4,6 C 74 % 1011,6 hPa 0,0 l/m 16,1 km/h W 0,4 C -1,9 C 39,4 km/h
11.12.2010 15:00 4,6 C 73 % 1011,2 hPa 0,0 l/m 16,9 km/h W 0,2 C -2,3 C 41,0 km/h
11.12.2010 16:00 4,9 C 72 % 1010,7 hPa 0,0 l/m 17,7 km/h W 0,2 C -2,4 C 40,2 km/h
11.12.2010 17:00 4,9 C 72 % 1009,8 hPa 0,0 l/m 20,1 km/h W 0,2 C -3,4 C 46,7 km/h
11.12.2010 18:00 4,9 C 73 % 1009,7 hPa 0,0 l/m 22,5 km/h W 0,3 C -4,3 C 53,1 km/h
11.12.2010 19:00 4,9 C 73 % 1010,3 hPa 0,0 l/m 19,3 km/h W 0,5 C -3,0 C 44,3 km/h
11.12.2010 20:00 4,7 C 75 % 1010,3 hPa 0,0 l/m 16,9 km/h W 0,6 C -2,3 C 41,8 km/h
11.12.2010 21:00 4,7 C 74 % 1010,0 hPa 0,0 l/m 16,9 km/h W 0,5 C -2,2 C 40,2 km/h
11.12.2010 22:00 4,6 C 76 % 1010,1 hPa 0,3 l/m 15,3 km/h W 0,7 C -1,6 C 39,4 km/h
11.12.2010 23:00 4,9 C 74 % 1009,4 hPa 0,0 l/m 13,7 km/h W 0,6 C -0,3 C 41,8 km/h
12.12.2010 00:00 5,0 C 73 % 1009,3 hPa 0,0 l/m 15,3 km/h W 0,5 C -1,1 C 40,2 km/h
12.12.2010 01:00 4,8 C 74 % 1008,6 hPa 0,0 l/m 14,5 km/h W 0,6 C -0,9 C 42,7 km/h
12.12.2010 02:00 5,1 C 71 % 1007,7 hPa 0,0 l/m 17,7 km/h W 0,3 C -2,1 C 45,9 km/h
12.12.2010 03:00 5,0 C 71 % 1006,2 hPa 0,0 l/m 20,1 km/h W 0,1 C -3,2 C 49,1 km/h
12.12.2010 04:00 4,9 C 71 % 1005,6 hPa 0,0 l/m 20,9 km/h W 0,0 C -3,6 C 47,5 km/h
12.12.2010 05:00 4,6 C 71 % 1005,1 hPa 0,0 l/m 23,3 km/h W -0,1 C -4,8 C 51,5 km/h
12.12.2010 06:00 4,6 C 71 % 1005,5 hPa 0,0 l/m 21,7 km/h W -0,2 C -4,4 C 48,3 km/h
12.12.2010 07:00 4,6 C 72 % 1005,7 hPa 0,0 l/m 17,7 km/h W -0,1 C -2,7 C 47,5 km/h
12.12.2010 08:00 4,7 C 71 % 1005,3 hPa 0,0 l/m 18,5 km/h W -0,2 C -3,0 C 43,4 km/h
12.12.2010 09:00 4,5 C 73 % 1005,6 hPa 0,0 l/m 16,9 km/h W 0,1 C -2,5 C 39,4 km/h
12.12.2010 10:00 4,1 C 77 % 1005,7 hPa 0,3 l/m 16,9 km/h W 0,4 C -3,0 C 45,8 km/h
12.12.2010 11:00 4,7 C 73 % 1005,7 hPa 0,3 l/m 14,5 km/h W 0,3 C -1,0 C 37,8 km/h
12.12.2010 12:00 4,6 C 72 % 1005,3 hPa 0,0 l/m 12,9 km/h W 0,0 C -0,2 C 30,6 km/h
12.12.2010 13:00 4,3 C 75 % 1005,2 hPa 0,0 l/m 9,7 km/h W 0,2 C 1,6 C 28,2 km/h
12.12.2010 14:00 4,4 C 74 % 1004,7 hPa 0,0 l/m 9,7 km/h W 0,0 C 1,6 C 27,4 km/h
12.12.2010 15:00 3,7 C 78 % 1005,0 hPa 0,3 l/m 12,9 km/h W 0,2 C -1,3 C 33,8 km/h
12.12.2010 16:00 2,9 C 82 % 1005,5 hPa 1,0 l/m 11,3 km/h NW 0,1 C -1,1 C 32,2 km/h
12.12.2010 17:00 2,4 C 84 % 1006,7 hPa 1,3 l/m 9,7 km/h NW -0,1 C -0,6 C 29,0 km/h
12.12.2010 18:00 2,3 C 84 % 1007,1 hPa 0,5 l/m 8,9 km/h NW -0,1 C 0,0 C 27,4 km/h
12.12.2010 19:00 2,4 C 84 % 1007,7 hPa 0,0 l/m 7,2 km/h NW -0,1 C 1,7 C 22,5 km/h
12.12.2010 20:00 2,0 C 84 % 1008,2 hPa 0,3 l/m 8,2 km/h NW -0,5 C 0,2 C 21,3 km/h
12.12.2010 21:00 1,4 C 85 % 1008,6 hPa 0,5 l/m 7,5 km/h NW -0,9 C 0,2 C 20,9 km/h
12.12.2010 22:00 1,3 C 84 % 1008,9 hPa 0,0 l/m 7,3 km/h NW -1,1 C 0,2 C 20,9 km/h
12.12.2010 23:00 1,3 C 79 % 1009,2 hPa 0,0 l/m 10,3 km/h NW -2,0 C -2,2 C 24,9 km/h
Min-Datum _ 06.12.10 10.12.10 09.12.10 - 06.12.10 - 06.12.10 10.12.10 06.12.10
_ Min-Zeit 01:30 15:30 00:00 - 00:00 - 01:30 12:15 00:30
Minimum _ -9,3 C 57 % 1000,6 hPa - 0,0 km/h - -11,1 C -9,7 C 0,0 km/h
Max-Datum _ 09.12.10 07.12.10 10.12.10 09.12.10 09.12.10 - 09.12.10 08.12.10 09.12.10
_ Max-Zeit 05:30 05:15 18:45 05:30 06:30 - 05:30 13:30 06:00
Maximum _ 8,7 C 92 % 1026,0 hPa 7,5 l/m 24,1 km/h
W
- 5,1 C 3,7 C 57,9 km/h
SW
Durchschnitt _ 0,9 C 79 % 1009,6 hPa #37,2 l/m 6,8 km/h W -2,3 C -1,6 C 18,2 km/h